Current Weather Conditions: station 46145

sailwx.info

Wind from 300 at 11 knots gusting 15

Wave height 2.1 meters (6 feet), 10 second period

Air temperature 5.4° C
Water temperature 6.9° C

Last reported at 2017-Jan-19 17:00 UTC.
Time now 2017-Jan-19 19:05 UTC

Location: N 54°24' W 132°24'.
View on Google Maps.

See reports from other nearby stations

  
Tides and Currents Weather Stations Pressure Air Temp Water Temp Dewpoint Dewpoint Depression Visibility Wind Speed Wind Dir Waves Ship Positions
date/time (UTC)wind fromknots sea level pressurealtimeterstation pressurevisibilityair tempwater tempwave heightnotes
2017-Jan-19 17:00 300 11 gusting 15 5.4 6.9 2.1
2017-Jan-19 16:00 300 15 gusting 19 5.6 6.9 2.0
2017-Jan-19 15:00 300 13 gusting 15 5.6 6.9 2.0
2017-Jan-19 14:00 300 15 gusting 19 5.7 7.1 1.9
2017-Jan-19 13:00 310 13 gusting 15 5.4 6.9 2.0
2017-Jan-19 12:00 300 15 gusting 19 5.7 7.1 1.4
2017-Jan-19 11:00 290 15 gusting 19 5.7 7.0 1.1
2017-Jan-19 10:00 280 15 gusting 19 5.7 7.0 1.0
2017-Jan-19 09:00 220 11 gusting 13 5.8 7.4 1.1
2017-Jan-19 08:00 210 11 gusting 15 5.9 7.3 1.2
2017-Jan-19 07:00 190 11 gusting 13 6.5 7.4 1.2
2017-Jan-19 06:00 180 11 gusting 15 6.8 7.2 1.2
2017-Jan-19 05:00 180 13 gusting 15 6.8 7.1 1.1
2017-Jan-19 04:00 190 13 gusting 15 6.8 7.0 1.1
2017-Jan-19 03:00 180 11 gusting 13 6.7 7.0 1.1
2017-Jan-19 02:00 160 11 gusting 13 7.0 7.0 1.1
2017-Jan-19 01:00 150 11 gusting 15 7.1 7.1 1.1
2017-Jan-19 00:00 150 11 gusting 15 7.2 7.5 1.2
2017-Jan-18 23:00 170 11 gusting 13 7.2 7.4 1.3
2017-Jan-18 22:00 180 13 gusting 17 7.4 7.6 1.3
2017-Jan-18 21:00 140 13 gusting 17 7.4 7.5 1.5
2017-Jan-18 20:00 150 19 gusting 21 7.2 7.4 1.7
2017-Jan-18 19:00 150 21 gusting 25 7.1 7.3 1.9
2017-Jan-18 18:00 160 21 gusting 27 7.5 7.5 2.0
2017-Jan-18 17:00 160 17 gusting 21 7.8 7.5 2.2
2017-Jan-18 16:00 140 17 gusting 21 7.9 7.4 2.2
2017-Jan-18 15:00 130 17 gusting 21 7.8 7.4 2.0
2017-Jan-18 14:00 140 17 gusting 21 7.8 7.4 1.9
2017-Jan-18 13:00 120 17 gusting 21 7.8 7.4 2.0
2017-Jan-18 12:00 100 13 gusting 15 7.5 7.8 2.1
2017-Jan-18 11:00 090 19 gusting 23 7.1 7.6 2.2
2017-Jan-18 10:00 110 19 gusting 23 7.2 7.4 2.3
2017-Jan-18 09:00 110 19 gusting 23 7.2 7.2 2.3
2017-Jan-18 08:00 120 19 gusting 25 7.9 7.1 2.4
2017-Jan-18 07:00 130 19 gusting 23 7.8 7.2 2.4
2017-Jan-18 06:00 110 21 gusting 27 7.6 7.4 2.3
2017-Jan-18 05:00 120 19 gusting 25 7.7 7.9 2.5
2017-Jan-18 04:00 120 19 gusting 23 7.6 7.9 2.6
2017-Jan-18 03:00 110 21 gusting 25 7.7 7.9 2.4
2017-Jan-18 02:00 110 21 gusting 27 7.6 7.9 2.4
2017-Jan-18 01:00 100 19 gusting 25 7.4 8.0 2.4
2017-Jan-18 00:00 090 21 gusting 27 7.1 7.7 2.4
2017-Jan-17 23:00 080 23 gusting 31 6.8 7.5 2.4
2017-Jan-17 22:00 090 23 gusting 29 6.8 7.3 2.0
2017-Jan-17 21:00 090 19 gusting 25 7.1 7.2 2.1
2017-Jan-17 20:00 090 19 gusting 23 7.4 7.1 1.9
2017-Jan-17 19:00 080 19 gusting 23 6.9 7.0 1.8